Terminal Aerodrome Forecast
Issued by NWS

Home | Current Version | Previous Version | Text Only | Print | Product List | Glossary On
Versions: 1 2 3 4 5 6 7 8 9 10 11 12 13 14 15 16 17 18 19 20 21 22 23 24 25 26 27 28 29 30 31 32 33 34 35 36 37
509
FTUS41 KBTV 242339 AAA
TAFPBG
TAF AMD
KPBG 242339Z 2500/2524 27006KT P6SM FEW070
     FM251000 21004KT P6SM FEW100
     FM251600 22006KT P6SM VCSH BKN080=

USA.gov is the U.S. government's official web portal to all federal, state and local government web resources and services.